Time;durP1;ratioP1;P1;durP2;ratioP2;P2;SDS_P1;SDS_P2;PMS_P1;PMS_P2;Temp;Humidity;BMP_temperature;BMP_pressure;BME280_temperature;BME280_humidity;BME280_pressure;Samples;Min_cycle;Max_cycle;Signal;HPM_P1;HPM_P2
2021/10/15 00:00:36;;;;;;;5.18;3.10;;;;;;;9.10;77.51;99645.97;5034530;28;20109;-77
2021/10/15 00:03:01;;;;;;;2.28;1.92;;;;;;;9.16;77.74;99655.84;5016929;28;20026;-76
2021/10/15 00:05:28;;;;;;;4.63;2.65;;;;;;;9.59;77.37;99726.78;5034463;28;20468;-77
2021/10/15 00:07:53;;;;;;;2.17;1.98;;;;;;;9.19;77.56;99671.31;5034619;28;20097;-76
2021/10/15 00:10:19;;;;;;;2.58;2.38;;;;;;;9.19;77.81;99657.31;5034199;28;20577;-76
2021/10/15 00:12:44;;;;;;;2.20;2.00;;;;;;;9.09;77.74;99661.94;5034342;28;20029;-77
2021/10/15 00:15:10;;;;;;;2.83;2.42;;;;;;;9.49;78.28;99716.41;5016487;28;20048;-77
2021/10/15 00:17:35;;;;;;;2.03;1.92;;;;;;;9.04;77.82;99637.91;5034407;28;20517;-77
2021/10/15 00:20:01;;;;;;;3.63;2.47;;;;;;;9.49;77.92;99721.69;5034327;28;20083;-76
2021/10/15 00:22:26;;;;;;;2.50;2.30;;;;;;;9.14;78.11;99671.00;5034348;28;20106;-75
2021/10/15 00:24:51;;;;;;;3.25;2.50;;;;;;;9.11;78.02;99658.16;5034264;28;20173;-77
2021/10/15 00:27:17;;;;;;;2.13;1.75;;;;;;;8.74;78.08;99605.97;5016373;28;20525;-77
2021/10/15 00:29:42;;;;;;;1.90;1.70;;;;;;;9.50;77.78;99710.97;5034044;28;20022;-76
2021/10/15 00:32:08;;;;;;;1.70;1.60;;;;;;;9.19;77.64;99647.59;5034030;28;20398;-77
2021/10/15 00:34:33;;;;;;;1.95;1.80;;;;;;;9.35;78.11;99681.00;5033895;28;20025;-76
2021/10/15 00:36:59;;;;;;;2.00;1.80;;;;;;;9.12;77.87;99638.72;5033828;28;20018;-77
2021/10/15 00:39:24;;;;;;;1.70;1.60;;;;;;;9.26;77.73;99655.66;5033924;28;20487;-77
2021/10/15 00:41:50;;;;;;;1.48;1.38;;;;;;;9.47;77.23;99679.69;5033741;28;20026;-77
2021/10/15 00:44:15;;;;;;;1.40;1.30;;;;;;;9.68;77.54;99707.34;5034021;28;20033;-77
2021/10/15 00:46:42;;;;;;;1.83;1.23;;;;;;;9.60;77.61;99681.78;5033884;28;20025;-76
2021/10/15 00:49:13;;;;;;;1.40;1.23;;;;;;;9.65;77.61;99697.09;5033937;28;20056;-76
2021/10/15 00:51:44;;;;;;;1.87;1.77;;;;;;;8.99;77.56;99590.19;5016096;28;20486;-77
2021/10/15 00:54:12;;;;;;;1.42;1.33;;;;;;;9.57;77.79;99693.50;5033503;28;20387;-76
2021/10/15 00:56:38;;;;;;;2.25;1.85;;;;;;;9.39;77.87;99670.97;5033609;28;20022;-77
2021/10/15 00:59:03;;;;;;;2.15;1.42;;;;;;;9.28;78.26;99647.59;5033616;28;20486;-77
2021/10/15 01:01:30;;;;;;;2.13;1.45;;;;;;;9.52;78.13;99682.63;5033424;28;20029;-76
2021/10/15 01:04:02;;;;;;;3.15;1.88;;;;;;;9.55;77.73;99678.84;5033267;28;20028;-76
2021/10/15 01:06:29;;;;;;;4.95;3.90;;;;;;;9.53;78.02;99679.00;5033107;28;20014;-76
2021/10/15 01:08:55;;;;;;;2.55;2.35;;;;;;;9.56;78.00;99683.13;5033204;28;20025;-77
2021/10/15 01:11:20;;;;;;;2.78;2.55;;;;;;;9.53;78.14;99686.09;5015404;28;20028;-76
2021/10/15 01:13:46;;;;;;;1.67;1.58;;;;;;;9.36;78.77;99672.13;5033320;28;20104;-76
2021/10/15 01:16:13;;;;;;;1.67;1.58;;;;;;;9.46;78.61;99691.22;5033181;28;20052;-76
2021/10/15 01:18:41;;;;;;;1.92;1.63;;;;;;;9.52;78.46;99689.72;5015248;28;20510;-76
2021/10/15 01:21:09;;;;;;;1.60;1.50;;;;;;;9.23;78.54;99640.19;5032832;28;20025;-76
2021/10/15 01:23:35;;;;;;;1.73;1.55;;;;;;;9.47;78.38;99669.13;5033090;28;20048;-76
2021/10/15 01:26:01;;;;;;;1.77;1.40;;;;;;;9.09;78.41;99602.19;5032928;28;20017;-77
2021/10/15 01:28:28;;;;;;;1.70;1.60;;;;;;;9.61;78.16;99686.06;5033411;28;20183;-76
2021/10/15 01:30:54;;;;;;;2.08;1.30;;;;;;;9.51;78.31;99664.34;5032927;28;20487;-77
2021/10/15 01:33:20;;;;;;;2.05;1.70;;;;;;;9.48;78.09;99651.50;5015316;28;20027;-77
2021/10/15 01:35:46;;;;;;;1.45;1.35;;;;;;;9.49;78.36;99672.44;5032699;28;20152;-77
2021/10/15 01:38:12;;;;;;;1.65;1.55;;;;;;;9.62;78.31;99674.53;5015285;28;20565;-77
2021/10/15 01:40:38;;;;;;;1.50;1.40;;;;;;;9.29;78.18;99628.16;5032659;28;20025;-77
2021/10/15 01:43:04;;;;;;;3.78;1.98;;;;;;;9.64;78.19;99685.72;5032940;28;20107;-77
2021/10/15 01:45:31;;;;;;;2.08;1.88;;;;;;;9.65;78.31;99686.56;5032722;28;20100;-76
2021/10/15 01:47:58;;;;;;;12.98;7.97;;;;;;;9.24;78.59;99612.84;5032693;28;20025;-77
2021/10/15 01:50:25;;;;;;;6.22;3.80;;;;;;;9.67;78.28;99679.34;5032606;28;20525;-76
2021/10/15 01:52:51;;;;;;;2.70;2.20;;;;;;;9.67;78.38;99672.25;5032523;28;20172;-76
2021/10/15 01:55:18;;;;;;;2.13;1.92;;;;;;;9.18;78.27;99577.47;5032366;28;20104;-76
2021/10/15 01:57:44;;;;;;;1.60;1.50;;;;;;;9.71;78.46;99656.91;5032393;28;20067;-77
2021/10/15 02:00:12;;;;;;;1.67;1.55;;;;;;;9.71;78.41;99657.72;5032436;28;20410;-76
2021/10/15 02:02:38;;;;;;;2.10;1.90;;;;;;;9.73;78.73;99647.03;5032415;28;20028;-77
2021/10/15 02:05:05;;;;;;;2.15;2.05;;;;;;;9.73;78.65;99647.84;5014698;28;20025;-76
2021/10/15 02:07:31;;;;;;;2.25;2.15;;;;;;;9.31;78.59;99573.50;5032140;28;20508;-77
2021/10/15 02:09:56;;;;;;;2.42;1.67;;;;;;;9.48;78.24;99620.72;5032191;28;20022;-76
2021/10/15 02:12:22;;;;;;;1.80;1.70;;;;;;;9.88;78.09;99646.13;5032027;28;20094;-76
2021/10/15 02:14:47;;;;;;;2.15;1.70;;;;;;;9.57;77.98;99606.50;5031875;28;20029;-76
2021/10/15 02:17:13;;;;;;;1.50;1.40;;;;;;;9.63;78.29;99598.91;5031504;28;20026;-76
2021/10/15 02:19:38;;;;;;;1.30;1.20;;;;;;;9.96;78.26;99641.81;5031859;28;20048;-76
2021/10/15 02:22:04;;;;;;;2.45;1.50;;;;;;;9.74;77.92;99609.94;5031883;28;20026;-77
2021/10/15 02:24:29;;;;;;;1.80;1.42;;;;;;;10.00;78.20;99648.41;5031913;28;20023;-76
2021/10/15 02:26:55;;;;;;;1.65;1.55;;;;;;;9.65;78.17;99591.66;5031736;28;20064;-76
2021/10/15 02:29:20;;;;;;;2.03;1.90;;;;;;;9.96;78.16;99647.91;5031839;28;20112;-76
2021/10/15 02:31:46;;;;;;;3.05;2.70;;;;;;;9.86;78.08;99645.50;5031879;28;20147;-76
2021/10/15 02:34:11;;;;;;;2.38;2.17;;;;;;;9.41;78.16;99564.41;5031648;28;20025;-77
2021/10/15 02:36:37;;;;;;;2.20;2.00;;;;;;;9.84;77.96;99636.09;5031749;28;20064;-77
2021/10/15 02:39:04;;;;;;;3.15;2.03;;;;;;;9.92;77.93;99625.53;5031861;28;20021;-77
2021/10/15 02:41:29;;;;;;;2.60;2.20;;;;;;;9.48;78.13;99554.81;5031644;28;20032;-76
2021/10/15 02:43:55;;;;;;;2.53;2.33;;;;;;;9.94;78.23;99634.06;5031840;28;20025;-77
2021/10/15 02:46:20;;;;;;;2.40;1.85;;;;;;;9.73;78.24;99605.66;5031618;28;20087;-75
2021/10/15 02:48:46;;;;;;;2.15;1.73;;;;;;;9.43;78.43;99575.59;5031480;28;20029;-76
2021/10/15 02:51:12;;;;;;;2.22;1.98;;;;;;;9.52;78.19;99582.47;5031577;28;20021;-76
2021/10/15 02:53:38;;;;;;;2.83;1.85;;;;;;;9.83;78.53;99637.91;5031437;28;20061;-76
2021/10/15 02:56:05;;;;;;;1.48;1.38;;;;;;;9.85;78.44;99643.03;5031779;28;20032;-76
2021/10/15 02:58:30;;;;;;;1.70;1.60;;;;;;;9.87;78.29;99647.13;5031561;28;20082;-77
2021/10/15 03:00:57;;;;;;;1.95;1.60;;;;;;;9.57;78.40;99601.25;5031190;28;20026;-76
2021/10/15 03:03:22;;;;;;;2.10;1.70;;;;;;;9.81;78.40;99649.63;5031139;28;20017;-76
2021/10/15 03:05:48;;;;;;;1.67;1.58;;;;;;;9.40;78.35;99578.56;5031359;28;20520;-76
2021/10/15 03:08:13;;;;;;;2.45;1.98;;;;;;;9.52;78.35;99587.75;5031289;28;20074;-76
2021/10/15 03:10:39;;;;;;;2.33;2.10;;;;;;;9.77;78.68;99619.31;5031346;28;20026;-76
2021/10/15 03:13:05;;;;;;;2.10;1.90;;;;;;;9.79;78.46;99619.97;5013764;28;20413;-77
2021/10/15 03:15:30;;;;;;;2.22;2.03;;;;;;;9.92;78.46;99630.78;5031283;28;20048;-75
2021/10/15 03:17:56;;;;;;;1.75;1.65;;;;;;;9.95;78.32;99646.28;5031116;28;20029;-76
2021/10/15 03:20:21;;;;;;;1.90;1.80;;;;;;;9.94;77.96;99636.72;5031224;28;20447;-77
2021/10/15 03:22:47;;;;;;;2.25;2.05;;;;;;;9.63;78.22;99578.66;5031334;28;20021;-76
2021/10/15 03:25:12;;;;;;;3.65;2.70;;;;;;;9.90;78.51;99624.88;5031245;28;20460;-76
2021/10/15 03:27:38;;;;;;;8.23;7.18;;;;;;;9.67;78.64;99602.88;5031823;28;20025;-76
2021/10/15 03:30:06;;;;;;;3.40;3.10;;;;;;;9.99;78.18;99647.56;5035230;28;20025;-76
2021/10/15 03:32:32;;;;;;;3.55;3.25;;;;;;;9.56;78.52;99575.88;5035071;28;20056;-76
2021/10/15 03:34:57;;;;;;;2.30;1.70;;;;;;;9.44;78.42;99550.06;5035098;28;20101;-77
2021/10/15 03:37:26;;;;;;;2.60;2.40;;;;;;;9.87;78.62;99614.66;5035115;28;20021;-76
2021/10/15 03:39:52;;;;;;;2.33;2.13;;;;;;;9.60;78.22;99563.16;5034874;28;20490;-77
2021/10/15 03:42:18;;;;;;;4.10;3.22;;;;;;;9.92;78.22;99617.59;5017035;28;20109;-77
2021/10/15 03:44:43;;;;;;;3.25;2.90;;;;;;;9.65;78.31;99560.03;5034930;28;20104;-77
2021/10/15 03:47:09;;;;;;;3.65;3.10;;;;;;;9.85;78.11;99598.19;5034844;28;20033;-76
2021/10/15 03:49:34;;;;;;;3.05;2.55;;;;;;;9.64;77.92;99559.19;5016977;28;20021;-76
2021/10/15 03:51:59;;;;;;;2.70;2.33;;;;;;;9.94;78.02;99596.34;5016959;28;20021;-77
2021/10/15 03:54:25;;;;;;;3.67;3.38;;;;;;;9.77;77.82;99579.78;5034642;28;20030;-77
2021/10/15 03:56:50;;;;;;;3.17;2.88;;;;;;;10.04;78.18;99618.88;5034933;28;20460;-76
2021/10/15 03:59:16;;;;;;;7.63;5.55;;;;;;;10.04;77.72;99618.88;5034630;28;20027;-77
2021/10/15 04:01:42;;;;;;;6.50;5.80;;;;;;;9.78;78.21;99600.69;5034283;28;20029;-76
2021/10/15 04:04:07;;;;;;;7.85;6.72;;;;;;;9.87;78.38;99590.94;5034429;28;20498;-76
2021/10/15 04:06:32;;;;;;;5.88;5.28;;;;;;;10.04;78.28;99620.69;5034665;28;20466;-76
2021/10/15 04:08:58;;;;;;;5.55;4.20;;;;;;;9.42;78.26;99515.97;5034499;28;20083;-77
2021/10/15 04:11:23;;;;;;;3.65;3.20;;;;;;;9.86;78.21;99592.75;5034324;28;20014;-76
2021/10/15 04:13:49;;;;;;;3.60;3.25;;;;;;;10.00;78.18;99616.75;5034215;28;20030;-76
2021/10/15 04:16:14;;;;;;;4.55;4.15;;;;;;;9.57;77.81;99556.44;5033989;28;20067;-76
2021/10/15 04:18:40;;;;;;;4.68;3.75;;;;;;;10.02;78.37;99626.13;5034125;28;20052;-76
2021/10/15 04:21:05;;;;;;;3.58;3.28;;;;;;;9.95;78.35;99609.34;5034263;28;20108;-77
2021/10/15 04:23:31;;;;;;;3.25;3.03;;;;;;;9.62;77.96;99548.00;5034494;28;20040;-76
2021/10/15 04:25:56;;;;;;;4.40;4.00;;;;;;;9.93;78.30;99592.88;5034025;28;20561;-76
2021/10/15 04:28:22;;;;;;;3.10;2.80;;;;;;;9.72;78.78;99567.09;5033990;28;20026;-76
2021/10/15 04:30:47;;;;;;;3.40;3.10;;;;;;;10.02;78.67;99620.84;5034082;28;20022;-76
2021/10/15 04:33:13;;;;;;;4.30;3.90;;;;;;;10.01;78.61;99598.09;5034185;28;20025;-76
2021/10/15 04:35:39;;;;;;;4.25;3.85;;;;;;;10.09;78.75;99607.78;5033768;28;20122;-77
2021/10/15 04:38:04;;;;;;;3.08;2.78;;;;;;;9.62;78.66;99526.91;5033585;28;20032;-76
2021/10/15 04:40:30;;;;;;;4.65;4.10;;;;;;;10.11;78.85;99611.91;5033363;28;20032;-76
2021/10/15 04:42:55;;;;;;;7.10;5.93;;;;;;;10.10;78.85;99607.63;5033605;28;20030;-76
2021/10/15 04:45:20;;;;;;;6.03;5.43;;;;;;;9.63;78.88;99519.84;5015759;28;20032;-77
2021/10/15 04:47:46;;;;;;;4.18;3.88;;;;;;;9.98;78.40;99569.44;5033602;28;20021;-77
2021/10/15 04:50:11;;;;;;;5.38;4.88;;;;;;;9.85;78.74;99546.28;5015962;28;20499;-76
2021/10/15 04:52:37;;;;;;;5.35;4.85;;;;;;;10.04;78.76;99583.75;5033646;28;20048;-77
2021/10/15 04:55:05;;;;;;;3.40;3.10;;;;;;;10.08;78.64;99599.06;5033755;28;20429;-76
2021/10/15 04:57:30;;;;;;;6.32;5.70;;;;;;;10.07;78.85;99602.69;5033760;28;20492;-76
2021/10/15 04:59:55;;;;;;;5.05;3.20;;;;;;;10.14;78.42;99624.75;5033497;28;20021;-75
2021/10/15 05:02:21;;;;;;;3.33;3.03;;;;;;;9.68;78.84;99554.44;5033767;28;20056;-76
2021/10/15 05:04:46;;;;;;;3.03;2.58;;;;;;;9.99;78.99;99602.72;5033455;28;20409;-76
2021/10/15 05:07:12;;;;;;;3.00;2.70;;;;;;;10.06;78.94;99621.34;5033183;28;20079;-76
2021/10/15 05:09:37;;;;;;;2.60;2.40;;;;;;;10.09;79.19;99615.72;5015298;28;20025;-76
2021/10/15 05:12:06;;;;;;;4.00;3.50;;;;;;;9.70;79.08;99553.28;5032915;28;20494;-76
2021/10/15 05:14:33;;;;;;;5.40;3.85;;;;;;;10.16;78.95;99630.66;5032778;28;20021;-77
2021/10/15 05:17:00;;;;;;;4.43;4.03;;;;;;;10.12;79.03;99616.19;5032934;28;20032;-76
2021/10/15 05:19:26;;;;;;;4.13;3.75;;;;;;;9.99;79.18;99592.19;5032935;28;20082;-76
2021/10/15 05:21:51;;;;;;;3.67;3.33;;;;;;;10.03;78.81;99598.75;5018214;28;20021;-76
2021/10/15 05:24:17;;;;;;;5.10;4.20;;;;;;;10.14;78.82;99616.00;5031883;28;20021;-76
2021/10/15 05:26:42;;;;;;;4.32;3.20;;;;;;;9.66;78.92;99541.44;5032907;28;20017;-76
2021/10/15 05:29:08;;;;;;;5.05;4.45;;;;;;;10.25;79.11;99630.66;5032845;28;20470;-76
2021/10/15 05:31:33;;;;;;;5.03;4.15;;;;;;;10.26;78.87;99622.56;5032734;28;20021;-76
2021/10/15 05:33:58;;;;;;;5.38;4.70;;;;;;;10.12;78.76;99589.81;5032670;28;20575;-76
2021/10/15 05:36:24;;;;;;;6.38;5.57;;;;;;;10.26;78.98;99619.94;5032339;28;20116;-76
2021/10/15 05:38:49;;;;;;;6.68;5.97;;;;;;;10.28;78.93;99617.13;5032893;28;20490;-76
2021/10/15 05:41:15;;;;;;;7.00;6.30;;;;;;;10.05;78.79;99580.13;5014574;28;20421;-76
2021/10/15 05:43:40;;;;;;;4.85;4.25;;;;;;;10.30;79.23;99615.13;5032324;28;20545;-76
2021/10/15 05:46:05;;;;;;;4.60;4.03;;;;;;;10.31;79.04;99611.50;5032759;28;20025;-76
2021/10/15 05:48:31;;;;;;;6.72;5.40;;;;;;;10.25;79.48;99607.72;5032377;28;20455;-76
2021/10/15 05:50:57;;;;;;;4.90;4.25;;;;;;;10.07;79.45;99596.59;5013707;28;20086;-76
2021/10/15 05:53:25;;;;;;;6.13;5.50;;;;;;;10.35;78.81;99605.69;5032531;28;20022;-76
2021/10/15 05:58:50;;;;;;;10.88;8.70;;;;;;;10.34;79.10;99627.78;5032385;28;20429;-76
2021/10/15 06:01:18;;;;;;;8.10;7.18;;;;;;;10.30;79.11;99623.88;5032031;28;20027;-76
2021/10/15 06:03:48;;;;;;;7.45;5.70;;;;;;;10.26;78.84;99611.19;5031758;28;20116;-77
2021/10/15 06:14:18;;;;;;;10.10;7.07;;;;;;;10.27;78.42;99613.66;5031642;28;20502;-76
2021/10/15 06:16:50;;;;;;;9.90;7.57;;;;;;;10.32;79.04;99621.06;5030882;28;20494;-76
2021/10/15 06:19:18;;;;;;;9.93;7.38;;;;;;;9.82;79.05;99537.88;5030414;28;20172;-76
2021/10/15 06:21:44;;;;;;;8.93;7.20;;;;;;;10.35;78.78;99613.59;5031398;28;20160;-77
2021/10/15 06:24:10;;;;;;;6.07;5.35;;;;;;;10.04;78.81;99567.94;5031322;28;20064;-76
2021/10/15 06:26:35;;;;;;;7.10;4.90;;;;;;;9.96;78.97;99562.69;5024251;28;20022;-76
2021/10/15 06:29:01;;;;;;;7.43;5.78;;;;;;;10.24;79.04;99598.16;5025044;28;20025;-76
2021/10/15 06:31:28;;;;;;;8.27;7.13;;;;;;;10.12;78.94;99568.69;5030948;28;20017;-77
2021/10/15 06:33:54;;;;;;;5.97;4.97;;;;;;;10.39;79.33;99612.25;5031355;28;20021;-76
2021/10/15 06:36:19;;;;;;;5.40;4.90;;;;;;;10.46;79.05;99621.16;5031454;28;20021;-76
2021/10/15 06:38:45;;;;;;;6.40;5.22;;;;;;;10.07;79.09;99563.13;5031730;28;20033;-76
2021/10/15 06:41:10;;;;;;;6.95;5.45;;;;;;;10.18;78.89;99581.19;5031113;28;20098;-76
2021/10/15 06:43:36;;;;;;;11.48;9.50;;;;;;;10.42;78.64;99606.66;5031159;28;20029;-76
2021/10/15 06:46:02;;;;;;;7.88;7.00;;;;;;;10.16;78.80;99562.06;5031111;28;20028;-77
2021/10/15 06:48:27;;;;;;;7.13;6.28;;;;;;;10.57;78.92;99621.75;5031627;28;20018;-77
2021/10/15 06:50:53;;;;;;;7.18;5.10;;;;;;;10.58;78.96;99626.03;5030931;28;20108;-77
2021/10/15 06:53:18;;;;;;;7.10;6.40;;;;;;;10.55;79.33;99623.72;5031255;28;20021;-77
2021/10/15 06:55:43;;;;;;;6.15;5.55;;;;;;;10.23;79.10;99574.59;5030607;28;20083;-77
2021/10/15 06:58:09;;;;;;;7.15;5.68;;;;;;;10.53;79.37;99615.16;5026917;28;20030;-77
2021/10/15 07:00:34;;;;;;;6.05;5.45;;;;;;;10.57;79.14;99619.09;5020485;28;20426;-76
2021/10/15 07:03:00;;;;;;;5.65;4.57;;;;;;;10.36;79.28;99580.94;5029705;28;20033;-77
2021/10/15 07:05:25;;;;;;;5.47;4.57;;;;;;;10.60;79.48;99632.78;5030405;28;20036;-77
2021/10/15 07:07:51;;;;;;;7.65;6.40;;;;;;;9.98;79.09;99539.59;5029448;28;20027;-75
2021/10/15 07:10:17;;;;;;;8.13;7.00;;;;;;;10.30;78.99;99580.81;5030446;28;20032;-77
2021/10/15 07:12:44;;;;;;;7.35;6.43;;;;;;;10.31;79.19;99577.19;5031033;28;20387;-77
2021/10/15 07:15:12;;;;;;;10.57;7.72;;;;;;;10.69;79.59;99625.59;5029404;28;20394;-77
2021/10/15 07:17:38;;;;;;;8.90;7.38;;;;;;;10.27;79.34;99566.16;5031174;28;20044;-76
2021/10/15 07:20:05;;;;;;;10.52;7.72;;;;;;;10.65;79.42;99632.25;5030601;28;20030;-77
2021/10/15 07:22:31;;;;;;;8.80;7.60;;;;;;;10.68;79.78;99639.81;5011605;28;20021;-76
2021/10/15 07:24:56;;;;;;;12.93;10.85;;;;;;;10.41;79.37;99605.03;5029249;28;20029;-76
2021/10/15 07:27:23;;;;;;;10.82;9.32;;;;;;;10.52;79.62;99651.31;5006252;28;20033;-76
2021/10/15 07:29:49;;;;;;;10.70;6.78;;;;;;;10.61;79.63;99647.63;5021694;28;20037;-78
2021/10/15 07:32:14;;;;;;;7.82;7.00;;;;;;;10.00;79.57;99564.00;5029084;28;20051;-78
2021/10/15 07:34:39;;;;;;;11.68;8.43;;;;;;;10.24;79.89;99594.72;5011877;28;20029;-76
2021/10/15 07:37:05;;;;;;;9.60;6.85;;;;;;;10.39;79.89;99611.44;5029865;28;20087;-76
2021/10/15 07:39:30;;;;;;;9.23;6.75;;;;;;;10.65;79.86;99646.25;5026600;28;20101;-76
2021/10/15 07:41:56;;;;;;;13.20;9.23;;;;;;;10.24;80.30;99595.53;5029658;28;20478;-76
2021/10/15 07:44:22;;;;;;;10.45;8.15;;;;;;;10.29;79.98;99597.66;5030275;28;20061;-76
2021/10/15 07:46:47;;;;;;;13.13;9.85;;;;;;;10.50;79.56;99619.81;5025540;28;20026;-77
2021/10/15 07:49:13;;;;;;;12.63;8.60;;;;;;;10.52;79.77;99611.72;5010942;28;20097;-76
2021/10/15 07:51:38;;;;;;;7.28;5.82;;;;;;;10.70;79.66;99632.53;5010889;28;20022;-76
2021/10/15 07:54:04;;;;;;;8.43;6.43;;;;;;;10.73;79.61;99627.72;5026134;28;20564;-77
2021/10/15 07:56:32;;;;;;;7.68;6.40;;;;;;;10.50;79.74;99603.13;4993228;28;20494;-77
2021/10/15 07:58:58;;;;;;;7.05;6.03;;;;;;;10.75;79.71;99619.63;5027859;28;20490;-76
2021/10/15 08:01:24;;;;;;;7.70;6.93;;;;;;;10.69;79.76;99610.59;5029241;28;20029;-77
2021/10/15 08:03:49;;;;;;;7.70;6.90;;;;;;;10.19;79.64;99521.31;5025095;28;20454;-76
2021/10/15 08:06:14;;;;;;;7.95;7.18;;;;;;;10.63;79.97;99587.53;5010689;28;20022;-77
2021/10/15 08:08:40;;;;;;;9.02;6.93;;;;;;;10.49;79.95;99552.16;5023656;28;20104;-76
2021/10/15 08:11:06;;;;;;;10.10;8.93;;;;;;;10.46;80.05;99570.19;5027911;28;20093;-76
2021/10/15 08:13:32;;;;;;;9.13;8.23;;;;;;;10.47;79.84;99540.97;5011346;28;20406;-76
2021/10/15 08:15:57;;;;;;;12.50;9.65;;;;;;;10.89;79.62;99602.16;5033736;28;20029;-76
2021/10/15 08:18:24;;;;;;;14.98;10.27;;;;;;;10.57;79.98;99561.84;5015505;28;20040;-76
2021/10/15 08:20:55;;;;;;;14.10;11.07;;;;;;;10.75;79.89;99590.56;5027893;28;20034;-76
2021/10/15 08:23:22;;;;;;;8.80;6.50;;;;;;;10.94;79.93;99615.66;5014997;28;20107;-81
2021/10/15 08:25:48;;;;;;;16.27;10.88;;;;;;;10.97;80.24;99625.88;5033555;28;20026;-82
2021/10/15 08:28:13;;;;;;;14.57;11.30;;;;;;;10.88;80.15;99611.09;5014610;28;20044;-82
2021/10/15 08:30:39;;;;;;;14.80;12.10;;;;;;;10.55;79.86;99547.19;5009753;28;20021;-82
2021/10/15 08:33:04;;;;;;;15.82;12.82;;;;;;;10.53;80.09;99528.88;5034113;28;20049;-82
2021/10/15 08:35:30;;;;;;;13.77;10.63;;;;;;;10.86;79.58;99589.31;5033960;28;20084;-82
2021/10/15 08:37:55;;;;;;;13.32;10.57;;;;;;;11.06;79.90;99614.22;5015790;28;20103;-82
2021/10/15 08:40:21;;;;;;;15.02;10.20;;;;;;;10.79;79.96;99565.44;5027763;28;20135;-82
2021/10/15 08:42:50;;;;;;;13.05;11.52;;;;;;;11.10;80.06;99604.94;5032173;28;20037;-82
2021/10/15 08:45:15;;;;;;;12.73;10.57;;;;;;;11.00;79.94;99594.63;5033595;28;20036;-82
2021/10/15 08:47:41;;;;;;;12.07;8.77;;;;;;;10.48;80.26;99510.09;5033307;28;20025;-82
2021/10/15 08:50:07;;;;;;;16.02;10.48;;;;;;;11.11;79.85;99612.69;5033376;28;20057;-82
2021/10/15 08:52:33;;;;;;;12.75;9.05;;;;;;;10.62;80.20;99522.53;5033001;28;20095;-82
2021/10/15 08:54:58;;;;;;;10.88;8.38;;;;;;;11.17;79.83;99607.72;5014971;28;20056;-82
2021/10/15 08:57:24;;;;;;;14.35;8.80;;;;;;;11.02;80.33;99597.09;5015569;28;20033;-81
2021/10/15 08:59:52;;;;;;;12.07;8.07;;;;;;;11.20;80.13;99610.00;5033217;28;20426;-81
2021/10/15 09:02:22;;;;;;;9.70;8.02;;;;;;;11.24;79.89;99616.56;5033089;28;20029;-82
2021/10/15 09:04:55;;;;;;;12.18;10.68;;;;;;;11.25;79.98;99607.63;5033347;28;20053;-81
2021/10/15 09:07:22;;;;;;;13.70;10.00;;;;;;;11.26;80.19;99610.09;5033078;28;20024;-82
2021/10/15 09:10:14;;;;;;;14.23;10.65;;;;;;;11.24;79.96;99598.88;5014867;28;20529;-81
2021/10/15 09:12:40;;;;;;;;;;;;;;;11.15;80.41;99607.91;5002634;28;20033;-82
2021/10/15 09:15:07;;;;;;;15.57;10.55;;;;;;;11.02;80.29;99579.41;5033060;28;19916;-81
2021/10/15 09:17:36;;;;;;;13.90;9.02;;;;;;;10.89;80.03;99550.16;5032864;28;20028;-82
2021/10/15 09:20:03;;;;;;;14.00;9.80;;;;;;;11.26;80.09;99601.34;5033040;28;20540;-82
2021/10/15 09:22:33;;;;;;;16.30;11.15;;;;;;;11.25;80.11;99605.81;5014367;28;20437;-82
2021/10/15 09:25:03;;;;;;;19.75;14.25;;;;;;;11.18;80.28;99591.69;5032441;28;20034;-76
2021/10/15 09:27:36;;;;;;;19.67;14.57;;;;;;;11.30;79.81;99613.19;5014872;28;20397;-76
2021/10/15 09:30:11;;;;;;;40.42;22.23;;;;;;;11.33;80.25;99624.25;5032780;28;20018;-76
2021/10/15 09:32:58;;;;;;;33.95;20.08;;;;;;;11.28;80.48;99607.28;5032674;28;20025;-76
2021/10/15 09:35:26;;;;;;;24.38;15.30;;;;;;;11.10;80.56;99575.88;5014283;28;20888;-76
2021/10/15 09:38:01;;;;;;;19.73;13.88;;;;;;;11.02;80.55;99575.97;5032390;28;20025;-76
2021/10/15 09:40:37;;;;;;;26.58;19.80;;;;;;;11.38;80.47;99648.31;5032258;28;20453;-77
2021/10/15 09:43:06;;;;;;;23.58;17.83;;;;;;;11.41;80.69;99649.75;5032064;28;20053;-76
2021/10/15 09:45:39;;;;;;;25.23;18.52;;;;;;;11.39;80.63;99649.94;5031988;28;20040;-77
2021/10/15 09:48:28;;;;;;;20.02;16.02;;;;;;;10.99;80.46;99608.84;5030475;28;20038;-76
2021/10/15 09:51:17;;;;;;;21.13;16.73;;;;;;;11.31;81.00;99676.47;5022757;28;20017;-76
2021/10/15 09:54:08;;;;;;;17.90;14.60;;;;;;;11.29;80.25;99677.63;5030691;28;20498;-76
2021/10/15 09:56:44;;;;;;;15.15;12.63;;;;;;;11.25;80.55;99684.28;5032433;28;20486;-76
2021/10/15 09:59:09;;;;;;;19.15;14.48;;;;;;;10.92;80.37;99618.47;5032011;28;20109;-76
2021/10/15 10:01:36;;;;;;;17.08;12.35;;;;;;;11.02;80.74;99634.91;5028841;28;20116;-77
2021/10/15 10:04:04;;;;;;;23.58;16.55;;;;;;;11.06;80.40;99627.44;5013702;28;20490;-76
2021/10/15 10:06:30;;;;;;;22.15;14.80;;;;;;;11.19;80.93;99629.50;5029651;28;20014;-77
2021/10/15 10:08:56;;;;;;;20.75;15.02;;;;;;;10.78;80.80;99554.06;5031819;28;20044;-76
2021/10/15 10:11:21;;;;;;;16.98;13.55;;;;;;;11.01;81.01;99591.00;5026395;28;20103;-77
2021/10/15 10:13:48;;;;;;;18.15;13.02;;;;;;;11.19;80.88;99611.81;5031661;28;20564;-76
2021/10/15 10:16:14;;;;;;;17.05;12.95;;;;;;;11.29;81.14;99614.22;5031833;28;20063;-77
2021/10/15 10:18:44;;;;;;;18.95;13.55;;;;;;;11.36;81.35;99610.66;5012838;28;20025;-77
2021/10/15 10:21:25;;;;;;;19.38;14.15;;;;;;;10.99;80.72;99536.69;5013741;28;20145;-77
2021/10/15 10:23:59;;;;;;;18.05;14.60;;;;;;;11.23;80.66;99567.34;5030347;28;20057;-76
2021/10/15 10:26:25;;;;;;;14.43;12.35;;;;;;;11.23;80.96;99554.97;5027351;28;20406;-77
2021/10/15 10:29:04;;;;;;;21.50;16.45;;;;;;;11.44;81.02;99585.94;5013860;28;20091;-76
2021/10/15 10:31:30;;;;;;;18.80;15.98;;;;;;;11.45;81.05;99588.41;5031301;28;20025;-76
2021/10/15 10:34:07;;;;;;;21.08;17.02;;;;;;;11.51;80.73;99564.91;5013587;28;20476;-77
2021/10/15 10:36:35;;;;;;;18.17;14.20;;;;;;;11.56;81.00;99562.53;5030710;28;20037;-76
2021/10/15 10:39:19;;;;;;;13.25;11.18;;;;;;;11.58;80.76;99557.88;5030691;28;20056;-76
2021/10/15 10:42:20;;;;;;;17.15;13.25;;;;;;;11.46;80.81;99542.47;5011576;28;20111;-77
2021/10/15 10:44:49;;;;;;;13.25;10.98;;;;;;;11.61;80.67;99562.78;5013896;28;20029;-76
2021/10/15 10:47:22;;;;;;;13.45;11.98;;;;;;;11.65;80.61;99561.41;5031466;28;20532;-76
2021/10/15 10:50:00;;;;;;;16.10;12.77;;;;;;;11.66;80.77;99558.59;5013744;28;20083;-76
2021/10/15 10:52:25;;;;;;;17.77;15.60;;;;;;;11.67;80.74;99557.59;5030696;28;20017;-76
2021/10/15 10:54:50;;;;;;;14.15;12.65;;;;;;;11.42;81.44;99516.59;5031039;28;20025;-76
2021/10/15 10:57:19;;;;;;;12.38;10.85;;;;;;;11.70;80.79;99561.69;5012988;28;20095;-76
2021/10/15 10:59:45;;;;;;;14.50;12.75;;;;;;;11.20;80.79;99493.72;5030438;28;20060;-76
2021/10/15 11:02:11;;;;;;;14.65;12.50;;;;;;;11.68;80.39;99566.34;5013184;28;20041;-76
2021/10/15 11:04:42;;;;;;;13.93;12.43;;;;;;;11.69;80.42;99557.41;5029719;28;20445;-77
2021/10/15 11:07:09;;;;;;;15.60;13.55;;;;;;;11.71;80.98;99555.38;5028922;28;20038;-77
2021/10/15 11:10:00;;;;;;;16.20;14.60;;;;;;;11.74;80.89;99549.72;5013344;28;20534;-78
2021/10/15 11:12:28;;;;;;;20.10;17.48;;;;;;;11.73;81.14;99538.31;5018707;28;20109;-77
2021/10/15 11:14:56;;;;;;;20.65;18.27;;;;;;;11.74;81.28;99520.63;5030659;28;20064;-76
2021/10/15 11:17:36;;;;;;;23.90;20.55;;;;;;;11.75;80.53;99516.97;5031183;28;20095;-77
2021/10/15 11:20:19;;;;;;;21.05;17.92;;;;;;;11.74;81.15;99502.94;5030893;28;20560;-77
2021/10/15 11:23:06;;;;;;;18.85;16.02;;;;;;;11.72;81.35;99498.84;5030557;28;20033;-77
2021/10/15 11:25:34;;;;;;;16.58;14.80;;;;;;;11.65;81.41;99474.13;5013319;28;20075;-77
2021/10/15 11:28:08;;;;;;;19.17;16.52;;;;;;;11.77;81.32;99481.44;5030672;28;20462;-77
2021/10/15 11:30:37;;;;;;;16.65;13.77;;;;;;;11.65;81.13;99463.56;5030698;28;20101;-77
2021/10/15 11:33:05;;;;;;;14.80;13.20;;;;;;;11.43;80.88;99421.22;5030659;28;20034;-75
2021/10/15 11:35:35;;;;;;;15.25;13.35;;;;;;;11.74;80.95;99459.78;5018920;28;20033;-76
2021/10/15 11:38:06;;;;;;;18.80;16.80;;;;;;;11.38;80.69;99383.97;5029501;28;20532;-77
2021/10/15 11:41:06;;;;;;;17.50;15.70;;;;;;;11.74;81.04;99436.81;5011201;28;20057;-76
2021/10/15 11:43:43;;;;;;;18.08;16.17;;;;;;;11.76;80.96;99434.78;5025329;28;20037;-76